sensor_id;sensor_type;location;lat;lon;timestamp;temperature;humidity
70734;DHT22;58320;48.804;9.252;2023-05-08T00:00:24;14.50;99.90
70734;DHT22;58320;48.804;9.252;2023-05-08T00:02:50;14.50;99.90
70734;DHT22;58320;48.804;9.252;2023-05-08T00:05:16;14.50;99.90
70734;DHT22;58320;48.804;9.252;2023-05-08T00:07:42;14.50;99.90
70734;DHT22;58320;48.804;9.252;2023-05-08T00:10:08;14.50;99.90
70734;DHT22;58320;48.804;9.252;2023-05-08T00:12:35;14.50;99.90
70734;DHT22;58320;48.804;9.252;2023-05-08T00:15:03;14.50;99.90
70734;DHT22;58320;48.804;9.252;2023-05-08T00:17:30;14.50;99.90
70734;DHT22;58320;48.804;9.252;2023-05-08T00:19:55;14.50;99.90
70734;DHT22;58320;48.804;9.252;2023-05-08T00:22:21;14.50;99.90
70734;DHT22;58320;48.804;9.252;2023-05-08T00:24:47;14.40;99.90
70734;DHT22;58320;48.804;9.252;2023-05-08T00:27:13;14.50;99.90
70734;DHT22;58320;48.804;9.252;2023-05-08T00:29:39;14.40;99.90
70734;DHT22;58320;48.804;9.252;2023-05-08T00:32:06;14.40;99.90
70734;DHT22;58320;48.804;9.252;2023-05-08T00:34:32;14.40;99.90
70734;DHT22;58320;48.804;9.252;2023-05-08T00:36:58;14.40;99.90
70734;DHT22;58320;48.804;9.252;2023-05-08T00:39:24;14.40;99.90
70734;DHT22;58320;48.804;9.252;2023-05-08T00:41:50;14.40;99.90
70734;DHT22;58320;48.804;9.252;2023-05-08T00:44:15;14.40;99.90
70734;DHT22;58320;48.804;9.252;2023-05-08T00:46:41;14.40;99.90
70734;DHT22;58320;48.804;9.252;2023-05-08T00:49:09;14.40;99.90
70734;DHT22;58320;48.804;9.252;2023-05-08T00:51:38;14.40;99.90
70734;DHT22;58320;48.804;9.252;2023-05-08T00:54:13;14.40;99.90
70734;DHT22;58320;48.804;9.252;2023-05-08T00:56:41;14.40;99.90
70734;DHT22;58320;48.804;9.252;2023-05-08T00:59:10;14.40;99.90
70734;DHT22;58320;48.804;9.252;2023-05-08T01:01:37;14.40;99.90
70734;DHT22;58320;48.804;9.252;2023-05-08T01:04:04;14.40;99.90
70734;DHT22;58320;48.804;9.252;2023-05-08T01:06:31;14.40;99.90
70734;DHT22;58320;48.804;9.252;2023-05-08T01:08:58;14.40;99.90
70734;DHT22;58320;48.804;9.252;2023-05-08T01:11:38;14.40;99.90
70734;DHT22;58320;48.804;9.252;2023-05-08T01:14:35;14.40;99.90
70734;DHT22;58320;48.804;9.252;2023-05-08T01:23:07;14.40;99.90
70734;DHT22;58320;48.804;9.252;2023-05-08T01:34:49;14.40;99.90
70734;DHT22;58320;48.804;9.252;2023-05-08T01:37:31;14.40;99.90
70734;DHT22;58320;48.804;9.252;2023-05-08T01:40:30;14.40;99.90
70734;DHT22;58320;48.804;9.252;2023-05-08T01:43:16;14.40;99.90
70734;DHT22;58320;48.804;9.252;2023-05-08T01:45:49;14.40;99.90
70734;DHT22;58320;48.804;9.252;2023-05-08T01:48:21;14.40;99.90
70734;DHT22;58320;48.804;9.252;2023-05-08T01:51:07;14.40;99.90
70734;DHT22;58320;48.804;9.252;2023-05-08T01:53:42;14.40;99.90
70734;DHT22;58320;48.804;9.252;2023-05-08T01:56:13;14.40;99.90
70734;DHT22;58320;48.804;9.252;2023-05-08T01:58:42;14.40;99.90
70734;DHT22;58320;48.804;9.252;2023-05-08T02:01:10;14.50;99.90
70734;DHT22;58320;48.804;9.252;2023-05-08T02:03:38;14.50;99.90
70734;DHT22;58320;48.804;9.252;2023-05-08T02:06:08;14.50;99.90
70734;DHT22;58320;48.804;9.252;2023-05-08T02:08:36;14.50;99.90
70734;DHT22;58320;48.804;9.252;2023-05-08T02:11:03;14.50;99.90
70734;DHT22;58320;48.804;9.252;2023-05-08T02:13:30;14.50;99.90
70734;DHT22;58320;48.804;9.252;2023-05-08T02:15:58;14.40;99.90
70734;DHT22;58320;48.804;9.252;2023-05-08T02:18:26;14.40;99.90
70734;DHT22;58320;48.804;9.252;2023-05-08T02:20:53;14.40;99.90
70734;DHT22;58320;48.804;9.252;2023-05-08T02:23:23;14.40;99.90
70734;DHT22;58320;48.804;9.252;2023-05-08T02:26:03;14.40;99.90
70734;DHT22;58320;48.804;9.252;2023-05-08T02:28:29;14.40;99.90
70734;DHT22;58320;48.804;9.252;2023-05-08T02:30:57;14.40;99.90
70734;DHT22;58320;48.804;9.252;2023-05-08T02:33:23;14.40;99.90
70734;DHT22;58320;48.804;9.252;2023-05-08T02:35:51;14.40;99.90
70734;DHT22;58320;48.804;9.252;2023-05-08T02:38:20;14.40;99.90
70734;DHT22;58320;48.804;9.252;2023-05-08T02:40:53;14.40;99.90
70734;DHT22;58320;48.804;9.252;2023-05-08T02:43:20;14.40;99.90
70734;DHT22;58320;48.804;9.252;2023-05-08T02:46:01;14.40;99.90
70734;DHT22;58320;48.804;9.252;2023-05-08T02:51:52;14.40;99.90
70734;DHT22;58320;48.804;9.252;2023-05-08T03:00:32;14.30;99.90
70734;DHT22;58320;48.804;9.252;2023-05-08T03:03:16;14.30;99.90
70734;DHT22;58320;48.804;9.252;2023-05-08T03:05:50;14.30;99.90
70734;DHT22;58320;48.804;9.252;2023-05-08T03:08:33;14.30;99.90
70734;DHT22;58320;48.804;9.252;2023-05-08T03:11:07;14.30;99.90
70734;DHT22;58320;48.804;9.252;2023-05-08T03:13:37;14.30;99.90
70734;DHT22;58320;48.804;9.252;2023-05-08T03:16:16;14.20;99.90
70734;DHT22;58320;48.804;9.252;2023-05-08T03:21:19;14.20;99.90
70734;DHT22;58320;48.804;9.252;2023-05-08T03:23:47;14.20;99.90
70734;DHT22;58320;48.804;9.252;2023-05-08T03:26:17;14.20;99.90
70734;DHT22;58320;48.804;9.252;2023-05-08T03:28:50;14.20;99.90
70734;DHT22;58320;48.804;9.252;2023-05-08T03:31:17;14.20;99.90
70734;DHT22;58320;48.804;9.252;2023-05-08T03:33:55;14.20;99.90
70734;DHT22;58320;48.804;9.252;2023-05-08T03:36:21;14.20;99.90
70734;DHT22;58320;48.804;9.252;2023-05-08T03:38:49;14.20;99.90
70734;DHT22;58320;48.804;9.252;2023-05-08T03:41:15;14.10;99.90
70734;DHT22;58320;48.804;9.252;2023-05-08T03:43:41;14.20;99.90
70734;DHT22;58320;48.804;9.252;2023-05-08T03:46:07;14.10;99.90
70734;DHT22;58320;48.804;9.252;2023-05-08T03:48:34;14.20;99.90
70734;DHT22;58320;48.804;9.252;2023-05-08T03:51:04;14.10;99.90
70734;DHT22;58320;48.804;9.252;2023-05-08T03:53:31;14.10;99.90
70734;DHT22;58320;48.804;9.252;2023-05-08T03:55:58;14.20;99.90
70734;DHT22;58320;48.804;9.252;2023-05-08T03:58:43;14.20;99.90
70734;DHT22;58320;48.804;9.252;2023-05-08T04:01:23;14.10;99.90
70734;DHT22;58320;48.804;9.252;2023-05-08T04:06:43;14.10;99.90
70734;DHT22;58320;48.804;9.252;2023-05-08T04:14:28;14.10;99.90
70734;DHT22;58320;48.804;9.252;2023-05-08T04:17:02;14.10;99.90
70734;DHT22;58320;48.804;9.252;2023-05-08T04:19:32;14.20;99.90
70734;DHT22;58320;48.804;9.252;2023-05-08T04:22:05;14.20;99.90
70734;DHT22;58320;48.804;9.252;2023-05-08T04:24:34;14.20;99.90
70734;DHT22;58320;48.804;9.252;2023-05-08T04:27:03;14.20;99.90
70734;DHT22;58320;48.804;9.252;2023-05-08T04:29:30;14.30;99.90
70734;DHT22;58320;48.804;9.252;2023-05-08T04:31:57;14.30;99.90
70734;DHT22;58320;48.804;9.252;2023-05-08T04:34:24;14.30;99.90
70734;DHT22;58320;48.804;9.252;2023-05-08T04:36:50;14.30;99.90
70734;DHT22;58320;48.804;9.252;2023-05-08T04:39:16;14.30;99.90
70734;DHT22;58320;48.804;9.252;2023-05-08T04:41:42;14.40;99.90
70734;DHT22;58320;48.804;9.252;2023-05-08T04:44:08;14.40;99.90
70734;DHT22;58320;48.804;9.252;2023-05-08T04:46:34;14.50;99.90
70734;DHT22;58320;48.804;9.252;2023-05-08T04:48:59;14.50;99.90
70734;DHT22;58320;48.804;9.252;2023-05-08T04:51:25;14.60;99.90
70734;DHT22;58320;48.804;9.252;2023-05-08T04:53:51;14.60;99.90
70734;DHT22;58320;48.804;9.252;2023-05-08T04:56:17;14.60;99.90
70734;DHT22;58320;48.804;9.252;2023-05-08T04:58:43;14.70;99.90
70734;DHT22;58320;48.804;9.252;2023-05-08T05:01:09;14.70;99.90
70734;DHT22;58320;48.804;9.252;2023-05-08T05:03:35;14.70;99.90
70734;DHT22;58320;48.804;9.252;2023-05-08T05:06:01;14.80;99.90
70734;DHT22;58320;48.804;9.252;2023-05-08T05:08:27;14.80;99.90
70734;DHT22;58320;48.804;9.252;2023-05-08T05:10:53;14.80;99.90
70734;DHT22;58320;48.804;9.252;2023-05-08T05:13:18;14.80;99.90
70734;DHT22;58320;48.804;9.252;2023-05-08T05:15:44;14.80;99.90
70734;DHT22;58320;48.804;9.252;2023-05-08T05:18:10;14.80;99.90
70734;DHT22;58320;48.804;9.252;2023-05-08T05:20:37;14.80;99.90
70734;DHT22;58320;48.804;9.252;2023-05-08T05:23:03;14.80;99.90
70734;DHT22;58320;48.804;9.252;2023-05-08T05:25:29;14.80;99.90
70734;DHT22;58320;48.804;9.252;2023-05-08T05:27:54;14.80;99.90
70734;DHT22;58320;48.804;9.252;2023-05-08T05:30:20;14.80;99.90
70734;DHT22;58320;48.804;9.252;2023-05-08T05:32:46;14.80;99.90
70734;DHT22;58320;48.804;9.252;2023-05-08T05:35:12;14.70;99.90
70734;DHT22;58320;48.804;9.252;2023-05-08T05:37:38;14.70;99.90
70734;DHT22;58320;48.804;9.252;2023-05-08T05:40:04;14.70;99.90
70734;DHT22;58320;48.804;9.252;2023-05-08T05:42:30;14.70;99.90
70734;DHT22;58320;48.804;9.252;2023-05-08T05:44:56;14.70;99.90
70734;DHT22;58320;48.804;9.252;2023-05-08T05:47:22;14.70;99.90
70734;DHT22;58320;48.804;9.252;2023-05-08T05:49:47;14.60;99.90
70734;DHT22;58320;48.804;9.252;2023-05-08T05:52:13;14.70;99.90
70734;DHT22;58320;48.804;9.252;2023-05-08T05:54:39;14.70;99.90
70734;DHT22;58320;48.804;9.252;2023-05-08T05:57:06;14.70;99.90
70734;DHT22;58320;48.804;9.252;2023-05-08T05:59:32;14.70;99.90
70734;DHT22;58320;48.804;9.252;2023-05-08T06:01:58;14.80;99.90
70734;DHT22;58320;48.804;9.252;2023-05-08T06:04:24;14.80;99.90
70734;DHT22;58320;48.804;9.252;2023-05-08T06:06:49;14.80;99.90
70734;DHT22;58320;48.804;9.252;2023-05-08T06:09:15;14.90;99.90
70734;DHT22;58320;48.804;9.252;2023-05-08T06:11:41;14.90;99.90
70734;DHT22;58320;48.804;9.252;2023-05-08T06:14:07;14.90;99.90
70734;DHT22;58320;48.804;9.252;2023-05-08T06:16:32;15.00;99.90
70734;DHT22;58320;48.804;9.252;2023-05-08T06:19:00;15.10;99.90
70734;DHT22;58320;48.804;9.252;2023-05-08T06:21:25;15.20;99.90
70734;DHT22;58320;48.804;9.252;2023-05-08T06:23:53;15.30;99.50
70734;DHT22;58320;48.804;9.252;2023-05-08T06:26:19;15.30;98.80
70734;DHT22;58320;48.804;9.252;2023-05-08T06:28:45;15.40;98.70
70734;DHT22;58320;48.804;9.252;2023-05-08T06:31:11;15.40;98.40
70734;DHT22;58320;48.804;9.252;2023-05-08T06:33:37;15.50;98.10
70734;DHT22;58320;48.804;9.252;2023-05-08T06:36:04;15.50;97.60
70734;DHT22;58320;48.804;9.252;2023-05-08T06:38:31;15.60;97.20
70734;DHT22;58320;48.804;9.252;2023-05-08T06:40:56;15.70;96.70
70734;DHT22;58320;48.804;9.252;2023-05-08T06:43:22;15.80;96.10
70734;DHT22;58320;48.804;9.252;2023-05-08T06:45:48;15.90;95.20
70734;DHT22;58320;48.804;9.252;2023-05-08T06:48:14;15.90;95.10
70734;DHT22;58320;48.804;9.252;2023-05-08T06:50:40;16.00;94.50
70734;DHT22;58320;48.804;9.252;2023-05-08T06:53:07;16.00;93.60
70734;DHT22;58320;48.804;9.252;2023-05-08T06:55:33;16.00;94.50
70734;DHT22;58320;48.804;9.252;2023-05-08T06:57:59;16.10;93.80
70734;DHT22;58320;48.804;9.252;2023-05-08T07:00:25;16.20;93.50
70734;DHT22;58320;48.804;9.252;2023-05-08T07:02:51;16.20;92.30
70734;DHT22;58320;48.804;9.252;2023-05-08T07:05:17;16.20;92.30
70734;DHT22;58320;48.804;9.252;2023-05-08T07:07:44;16.20;91.90
70734;DHT22;58320;48.804;9.252;2023-05-08T07:10:10;16.30;92.20
70734;DHT22;58320;48.804;9.252;2023-05-08T07:12:36;16.30;91.60
70734;DHT22;58320;48.804;9.252;2023-05-08T07:15:02;16.30;92.20
70734;DHT22;58320;48.804;9.252;2023-05-08T07:17:28;16.50;92.30
70734;DHT22;58320;48.804;9.252;2023-05-08T07:19:55;16.50;91.50
70734;DHT22;58320;48.804;9.252;2023-05-08T07:22:20;16.50;90.40
70734;DHT22;58320;48.804;9.252;2023-05-08T07:24:46;16.50;90.80
70734;DHT22;58320;48.804;9.252;2023-05-08T07:27:12;16.50;90.90
70734;DHT22;58320;48.804;9.252;2023-05-08T07:29:39;16.60;90.00
70734;DHT22;58320;48.804;9.252;2023-05-08T07:32:08;16.70;90.80
70734;DHT22;58320;48.804;9.252;2023-05-08T07:34:34;16.70;89.10
70734;DHT22;58320;48.804;9.252;2023-05-08T07:37:00;16.70;89.50
70734;DHT22;58320;48.804;9.252;2023-05-08T07:39:26;16.80;89.50
70734;DHT22;58320;48.804;9.252;2023-05-08T07:41:52;16.80;88.50
70734;DHT22;58320;48.804;9.252;2023-05-08T07:44:18;16.70;89.20
70734;DHT22;58320;48.804;9.252;2023-05-08T07:46:44;16.80;89.00
70734;DHT22;58320;48.804;9.252;2023-05-08T07:49:10;16.80;88.10
70734;DHT22;58320;48.804;9.252;2023-05-08T07:51:35;17.00;87.50
70734;DHT22;58320;48.804;9.252;2023-05-08T07:54:01;17.10;85.80
70734;DHT22;58320;48.804;9.252;2023-05-08T07:56:27;17.30;85.40
70734;DHT22;58320;48.804;9.252;2023-05-08T07:58:52;17.50;84.90
70734;DHT22;58320;48.804;9.252;2023-05-08T08:01:18;17.70;83.80
70734;DHT22;58320;48.804;9.252;2023-05-08T08:03:44;17.80;83.10
70734;DHT22;58320;48.804;9.252;2023-05-08T08:06:10;17.70;82.40
70734;DHT22;58320;48.804;9.252;2023-05-08T08:08:36;18.00;82.20
70734;DHT22;58320;48.804;9.252;2023-05-08T08:11:02;18.30;80.90
70734;DHT22;58320;48.804;9.252;2023-05-08T08:13:28;18.40;79.50
70734;DHT22;58320;48.804;9.252;2023-05-08T08:15:54;18.50;78.70
70734;DHT22;58320;48.804;9.252;2023-05-08T08:18:19;18.70;77.60
70734;DHT22;58320;48.804;9.252;2023-05-08T08:20:45;18.60;77.60
70734;DHT22;58320;48.804;9.252;2023-05-08T08:23:11;18.70;76.80
70734;DHT22;58320;48.804;9.252;2023-05-08T08:25:37;18.70;76.50
70734;DHT22;58320;48.804;9.252;2023-05-08T08:28:03;18.50;76.40
70734;DHT22;58320;48.804;9.252;2023-05-08T08:30:29;18.30;78.00
70734;DHT22;58320;48.804;9.252;2023-05-08T08:32:55;18.00;79.40
70734;DHT22;58320;48.804;9.252;2023-05-08T08:35:20;18.00;79.70
70734;DHT22;58320;48.804;9.252;2023-05-08T08:37:56;17.90;80.70
70734;DHT22;58320;48.804;9.252;2023-05-08T08:40:22;18.00;80.70
70734;DHT22;58320;48.804;9.252;2023-05-08T08:42:48;18.00;79.30
70734;DHT22;58320;48.804;9.252;2023-05-08T08:45:13;18.00;80.10
70734;DHT22;58320;48.804;9.252;2023-05-08T08:47:43;18.10;80.80
70734;DHT22;58320;48.804;9.252;2023-05-08T08:50:12;18.20;79.50
70734;DHT22;58320;48.804;9.252;2023-05-08T08:55:30;18.10;80.20
70734;DHT22;58320;48.804;9.252;2023-05-08T09:01:02;18.10;80.20
70734;DHT22;58320;48.804;9.252;2023-05-08T09:03:30;17.90;79.60
70734;DHT22;58320;48.804;9.252;2023-05-08T09:05:59;17.60;81.80
70734;DHT22;58320;48.804;9.252;2023-05-08T09:08:25;17.50;81.80
70734;DHT22;58320;48.804;9.252;2023-05-08T09:10:54;17.70;82.50
70734;DHT22;58320;48.804;9.252;2023-05-08T09:13:21;17.80;81.40
70734;DHT22;58320;48.804;9.252;2023-05-08T09:15:47;17.70;80.50
70734;DHT22;58320;48.804;9.252;2023-05-08T09:18:14;17.70;81.30
70734;DHT22;58320;48.804;9.252;2023-05-08T09:20:41;17.80;82.10
70734;DHT22;58320;48.804;9.252;2023-05-08T09:23:08;17.90;81.20
70734;DHT22;58320;48.804;9.252;2023-05-08T09:25:43;18.00;80.50
70734;DHT22;58320;48.804;9.252;2023-05-08T09:28:23;18.10;79.20
70734;DHT22;58320;48.804;9.252;2023-05-08T09:33:26;18.40;78.40
70734;DHT22;58320;48.804;9.252;2023-05-08T09:35:54;18.70;77.60
70734;DHT22;58320;48.804;9.252;2023-05-08T09:38:39;18.90;76.10
70734;DHT22;58320;48.804;9.252;2023-05-08T09:43:40;19.50;73.10
70734;DHT22;58320;48.804;9.252;2023-05-08T09:46:24;19.80;73.10
70734;DHT22;58320;48.804;9.252;2023-05-08T09:48:58;20.10;71.00
70734;DHT22;58320;48.804;9.252;2023-05-08T09:51:27;20.20;69.90
70734;DHT22;58320;48.804;9.252;2023-05-08T09:53:55;20.60;69.30
70734;DHT22;58320;48.804;9.252;2023-05-08T09:56:48;20.60;67.00
70734;DHT22;58320;48.804;9.252;2023-05-08T09:59:25;20.70;68.60
70734;DHT22;58320;48.804;9.252;2023-05-08T10:01:52;20.70;66.50
70734;DHT22;58320;48.804;9.252;2023-05-08T10:04:32;20.60;67.70
70734;DHT22;58320;48.804;9.252;2023-05-08T10:06:59;20.80;66.40
70734;DHT22;58320;48.804;9.252;2023-05-08T10:09:25;20.60;66.30
70734;DHT22;58320;48.804;9.252;2023-05-08T10:11:52;20.60;67.90
70734;DHT22;58320;48.804;9.252;2023-05-08T10:14:20;20.60;68.20
70734;DHT22;58320;48.804;9.252;2023-05-08T10:16:49;20.60;68.30
70734;DHT22;58320;48.804;9.252;2023-05-08T10:19:22;20.60;67.30
70734;DHT22;58320;48.804;9.252;2023-05-08T10:21:50;20.60;68.30
70734;DHT22;58320;48.804;9.252;2023-05-08T10:24:31;20.50;68.10
70734;DHT22;58320;48.804;9.252;2023-05-08T10:27:16;20.50;68.70
70734;DHT22;58320;48.804;9.252;2023-05-08T10:29:52;20.30;68.70
70734;DHT22;58320;48.804;9.252;2023-05-08T10:32:20;20.20;71.30
70734;DHT22;58320;48.804;9.252;2023-05-08T10:35:08;20.00;71.90
70734;DHT22;58320;48.804;9.252;2023-05-08T10:37:36;19.90;72.50
70734;DHT22;58320;48.804;9.252;2023-05-08T10:40:04;19.90;72.80
70734;DHT22;58320;48.804;9.252;2023-05-08T10:42:33;19.80;73.60
70734;DHT22;58320;48.804;9.252;2023-05-08T10:45:05;19.70;70.70
70734;DHT22;58320;48.804;9.252;2023-05-08T10:47:47;19.60;73.20
70734;DHT22;58320;48.804;9.252;2023-05-08T10:53:06;19.70;69.90
70734;DHT22;58320;48.804;9.252;2023-05-08T10:55:34;19.50;70.20
70734;DHT22;58320;48.804;9.252;2023-05-08T10:58:15;19.20;72.10
70734;DHT22;58320;48.804;9.252;2023-05-08T11:03:26;18.80;74.70
70734;DHT22;58320;48.804;9.252;2023-05-08T11:05:53;18.50;75.10
70734;DHT22;58320;48.804;9.252;2023-05-08T11:08:21;18.30;75.90
70734;DHT22;58320;48.804;9.252;2023-05-08T11:13:34;17.80;82.70
70734;DHT22;58320;48.804;9.252;2023-05-08T11:16:01;17.90;81.60
70734;DHT22;58320;48.804;9.252;2023-05-08T11:18:28;18.10;79.70
70734;DHT22;58320;48.804;9.252;2023-05-08T11:21:03;18.40;78.90
70734;DHT22;58320;48.804;9.252;2023-05-08T11:23:34;18.60;77.10
70734;DHT22;58320;48.804;9.252;2023-05-08T11:28:32;19.60;76.20
70734;DHT22;58320;48.804;9.252;2023-05-08T11:31:03;20.30;73.30
70734;DHT22;58320;48.804;9.252;2023-05-08T11:33:36;20.80;71.10
70734;DHT22;58320;48.804;9.252;2023-05-08T11:38:38;22.30;66.60
70734;DHT22;58320;48.804;9.252;2023-05-08T11:46:00;24.20;61.30
70734;DHT22;58320;48.804;9.252;2023-05-08T11:48:26;24.30;61.70
70734;DHT22;58320;48.804;9.252;2023-05-08T11:50:52;24.60;59.20
70734;DHT22;58320;48.804;9.252;2023-05-08T11:53:18;25.00;59.30
70734;DHT22;58320;48.804;9.252;2023-05-08T11:55:53;25.40;58.00
70734;DHT22;58320;48.804;9.252;2023-05-08T11:58:19;25.10;56.20
70734;DHT22;58320;48.804;9.252;2023-05-08T12:00:46;25.10;57.30
70734;DHT22;58320;48.804;9.252;2023-05-08T12:03:14;24.70;58.70
70734;DHT22;58320;48.804;9.252;2023-05-08T12:05:41;24.20;57.30
70734;DHT22;58320;48.804;9.252;2023-05-08T12:08:08;23.90;58.40
70734;DHT22;58320;48.804;9.252;2023-05-08T12:10:50;24.00;59.20
70734;DHT22;58320;48.804;9.252;2023-05-08T12:13:21;24.60;57.60
70734;DHT22;58320;48.804;9.252;2023-05-08T12:15:51;25.00;55.00
70734;DHT22;58320;48.804;9.252;2023-05-08T12:18:19;25.10;56.10
70734;DHT22;58320;48.804;9.252;2023-05-08T12:20:50;25.70;55.70
70734;DHT22;58320;48.804;9.252;2023-05-08T12:23:19;25.60;53.00
70734;DHT22;58320;48.804;9.252;2023-05-08T12:25:45;25.80;52.60
70734;DHT22;58320;48.804;9.252;2023-05-08T12:28:11;26.10;51.80
70734;DHT22;58320;48.804;9.252;2023-05-08T12:30:37;26.00;51.40
70734;DHT22;58320;48.804;9.252;2023-05-08T12:33:03;26.00;52.10
70734;DHT22;58320;48.804;9.252;2023-05-08T12:35:30;26.30;51.90
70734;DHT22;58320;48.804;9.252;2023-05-08T12:38:00;26.50;50.30
70734;DHT22;58320;48.804;9.252;2023-05-08T12:40:30;27.20;50.00
70734;DHT22;58320;48.804;9.252;2023-05-08T12:43:00;27.10;49.70
70734;DHT22;58320;48.804;9.252;2023-05-08T12:45:29;26.70;48.90
70734;DHT22;58320;48.804;9.252;2023-05-08T12:48:02;26.40;50.00
70734;DHT22;58320;48.804;9.252;2023-05-08T12:50:41;26.00;51.30
70734;DHT22;58320;48.804;9.252;2023-05-08T12:53:09;26.20;51.90
70734;DHT22;58320;48.804;9.252;2023-05-08T12:55:48;27.50;49.20
70734;DHT22;58320;48.804;9.252;2023-05-08T12:58:32;28.30;46.00
70734;DHT22;58320;48.804;9.252;2023-05-08T13:01:10;28.10;46.00
70734;DHT22;58320;48.804;9.252;2023-05-08T13:03:38;27.50;47.10
70734;DHT22;58320;48.804;9.252;2023-05-08T13:06:04;26.90;48.80
70734;DHT22;58320;48.804;9.252;2023-05-08T13:08:35;26.70;49.30
70734;DHT22;58320;48.804;9.252;2023-05-08T13:11:06;26.80;48.90
70734;DHT22;58320;48.804;9.252;2023-05-08T13:13:35;27.50;48.30
70734;DHT22;58320;48.804;9.252;2023-05-08T13:16:05;27.90;47.30
70734;DHT22;58320;48.804;9.252;2023-05-08T13:18:32;28.20;45.20
70734;DHT22;58320;48.804;9.252;2023-05-08T13:21:00;28.70;44.50
70734;DHT22;58320;48.804;9.252;2023-05-08T13:23:27;27.50;47.10
70734;DHT22;58320;48.804;9.252;2023-05-08T13:25:53;26.90;48.20
70734;DHT22;58320;48.804;9.252;2023-05-08T13:28:19;25.70;49.60
70734;DHT22;58320;48.804;9.252;2023-05-08T13:30:45;25.00;52.30
70734;DHT22;58320;48.804;9.252;2023-05-08T13:33:11;24.20;53.90
70734;DHT22;58320;48.804;9.252;2023-05-08T13:35:37;23.60;56.30
70734;DHT22;58320;48.804;9.252;2023-05-08T13:38:03;22.80;58.60
70734;DHT22;58320;48.804;9.252;2023-05-08T13:40:29;22.60;58.80
70734;DHT22;58320;48.804;9.252;2023-05-08T13:42:54;22.30;59.80
70734;DHT22;58320;48.804;9.252;2023-05-08T13:45:20;22.20;59.40
70734;DHT22;58320;48.804;9.252;2023-05-08T13:47:48;22.00;59.10
70734;DHT22;58320;48.804;9.252;2023-05-08T13:50:15;21.40;61.70
70734;DHT22;58320;48.804;9.252;2023-05-08T13:52:42;21.20;62.20
70734;DHT22;58320;48.804;9.252;2023-05-08T13:55:10;21.10;63.50
70734;DHT22;58320;48.804;9.252;2023-05-08T13:57:37;21.20;63.80
70734;DHT22;58320;48.804;9.252;2023-05-08T14:00:04;21.40;62.40
70734;DHT22;58320;48.804;9.252;2023-05-08T14:02:31;21.40;63.00
70734;DHT22;58320;48.804;9.252;2023-05-08T14:04:57;21.20;62.30
70734;DHT22;58320;48.804;9.252;2023-05-08T14:07:23;20.90;63.20
70734;DHT22;58320;48.804;9.252;2023-05-08T14:09:48;20.80;63.70
70734;DHT22;58320;48.804;9.252;2023-05-08T14:12:14;20.70;63.80
70734;DHT22;58320;48.804;9.252;2023-05-08T14:14:40;20.70;64.50
70734;DHT22;58320;48.804;9.252;2023-05-08T14:17:06;20.50;64.00
70734;DHT22;58320;48.804;9.252;2023-05-08T14:19:33;20.50;65.40
70734;DHT22;58320;48.804;9.252;2023-05-08T14:21:58;20.40;64.90
70734;DHT22;58320;48.804;9.252;2023-05-08T14:24:24;20.30;66.50
70734;DHT22;58320;48.804;9.252;2023-05-08T14:26:50;20.20;65.40
70734;DHT22;58320;48.804;9.252;2023-05-08T14:29:16;20.00;64.20
70734;DHT22;58320;48.804;9.252;2023-05-08T14:31:43;20.00;65.10
70734;DHT22;58320;48.804;9.252;2023-05-08T14:34:09;19.90;66.30
70734;DHT22;58320;48.804;9.252;2023-05-08T14:36:35;19.80;66.30
70734;DHT22;58320;48.804;9.252;2023-05-08T14:39:01;19.80;66.50
70734;DHT22;58320;48.804;9.252;2023-05-08T14:41:28;19.80;66.90
70734;DHT22;58320;48.804;9.252;2023-05-08T14:43:54;19.80;66.30
70734;DHT22;58320;48.804;9.252;2023-05-08T14:46:20;19.90;66.90
70734;DHT22;58320;48.804;9.252;2023-05-08T14:48:46;19.70;66.50
70734;DHT22;58320;48.804;9.252;2023-05-08T14:51:12;19.70;67.10
70734;DHT22;58320;48.804;9.252;2023-05-08T14:53:39;19.50;67.00
70734;DHT22;58320;48.804;9.252;2023-05-08T14:56:05;19.50;69.40
70734;DHT22;58320;48.804;9.252;2023-05-08T14:58:32;19.60;72.60
70734;DHT22;58320;48.804;9.252;2023-05-08T15:00:57;19.50;73.00
70734;DHT22;58320;48.804;9.252;2023-05-08T15:03:23;19.40;72.60
70734;DHT22;58320;48.804;9.252;2023-05-08T15:05:49;19.40;74.50
70734;DHT22;58320;48.804;9.252;2023-05-08T15:08:15;19.30;74.80
70734;DHT22;58320;48.804;9.252;2023-05-08T15:10:41;19.40;76.60
70734;DHT22;58320;48.804;9.252;2023-05-08T15:13:07;19.40;77.60
70734;DHT22;58320;48.804;9.252;2023-05-08T15:15:32;19.60;76.10
70734;DHT22;58320;48.804;9.252;2023-05-08T15:17:58;19.80;77.00
70734;DHT22;58320;48.804;9.252;2023-05-08T15:20:24;19.70;75.60
70734;DHT22;58320;48.804;9.252;2023-05-08T15:22:50;19.80;74.90
70734;DHT22;58320;48.804;9.252;2023-05-08T15:25:15;20.00;75.30
70734;DHT22;58320;48.804;9.252;2023-05-08T15:27:41;20.10;76.60
70734;DHT22;58320;48.804;9.252;2023-05-08T15:30:08;20.20;75.00
70734;DHT22;58320;48.804;9.252;2023-05-08T15:32:34;20.40;73.80
70734;DHT22;58320;48.804;9.252;2023-05-08T15:35:00;20.60;73.80
70734;DHT22;58320;48.804;9.252;2023-05-08T15:37:26;20.80;73.50
70734;DHT22;58320;48.804;9.252;2023-05-08T15:39:52;20.90;73.40
70734;DHT22;58320;48.804;9.252;2023-05-08T15:42:18;21.30;71.80
70734;DHT22;58320;48.804;9.252;2023-05-08T15:44:45;21.60;71.20
70734;DHT22;58320;48.804;9.252;2023-05-08T15:47:20;21.90;69.90
70734;DHT22;58320;48.804;9.252;2023-05-08T15:49:47;22.00;68.80
70734;DHT22;58320;48.804;9.252;2023-05-08T15:52:13;22.00;68.30
70734;DHT22;58320;48.804;9.252;2023-05-08T15:54:43;22.20;69.20
70734;DHT22;58320;48.804;9.252;2023-05-08T15:57:09;22.20;67.10
70734;DHT22;58320;48.804;9.252;2023-05-08T15:59:35;22.10;67.50
70734;DHT22;58320;48.804;9.252;2023-05-08T16:02:05;21.60;66.30
70734;DHT22;58320;48.804;9.252;2023-05-08T16:04:31;21.60;67.70
70734;DHT22;58320;48.804;9.252;2023-05-08T16:07:00;21.70;67.30
70734;DHT22;58320;48.804;9.252;2023-05-08T16:09:26;21.90;66.60
70734;DHT22;58320;48.804;9.252;2023-05-08T16:11:52;22.00;67.10
70734;DHT22;58320;48.804;9.252;2023-05-08T16:14:18;22.00;65.90
70734;DHT22;58320;48.804;9.252;2023-05-08T16:16:44;21.60;65.50
70734;DHT22;58320;48.804;9.252;2023-05-08T16:19:10;21.40;65.20
70734;DHT22;58320;48.804;9.252;2023-05-08T16:21:36;21.20;66.60
70734;DHT22;58320;48.804;9.252;2023-05-08T16:24:02;21.20;65.90
70734;DHT22;58320;48.804;9.252;2023-05-08T16:26:27;21.10;67.20
70734;DHT22;58320;48.804;9.252;2023-05-08T16:28:53;21.00;67.70
70734;DHT22;58320;48.804;9.252;2023-05-08T16:31:19;20.90;67.90
70734;DHT22;58320;48.804;9.252;2023-05-08T16:33:45;20.50;67.60
70734;DHT22;58320;48.804;9.252;2023-05-08T16:36:10;20.30;68.70
70734;DHT22;58320;48.804;9.252;2023-05-08T16:38:36;20.30;69.20
70734;DHT22;58320;48.804;9.252;2023-05-08T16:41:04;20.20;69.70